X  Stänga Metar väderdata för luftfart        LYNI Nis Airport
Temperatur
18°C Temperatur
17°C Daggpunkt
94% Fuktighet



Vind
0 M/S
0 MPH
0 KM/T
0 KTS



Lugn
N
Nuvarande omständigheter

Partly Cloudy Delvis molnigt
Tryck 1014 (hPa) - 29.93 (inHg)
Synlighet 6 (mil) - 10 (km)
Flygplats
Flygplatskod LYNI

Plats: Nis Airport
Distans: 63 (km)

Metar:
METAR LYNI 190530Z 00000KT 9999 FEW004 SCT040 18/17 Q1014 NOSIG

Tid: 19-05-2024 07:30 CEST